Amesbury, Massachusetts
Current Conditions -  °F | °C
As of 9:49 AM on Wednesday 22 Oct 2014 (Local Time) from KLWM Reporting Station
Light Rain Light Rain  
Wind Chill: 52°   Ceiling: 900
Heat Index: 52°   Visibility: 4mi
Dew Point: 48°   Wind: 14mph
Humidity: 88%   Direction: 30°NNE
Pressure: 30.07"   Gusts: NA
Location:  42.86°N, 70.93°W
Report Text: KLWM 221349Z 03012KT 4SM -RA BR OVC009 11/09 A3007 RMK AO2 PK WND 04027/1256 CIG 006V013 P0001
Loading
Personal Weather Stations






























Interactive Weather Map
Tropical Storm Tracking
New forecast layout! Learn more

10-Day Weather Forecast

Advertisements
Track Severe Weather on mobile